createdAt,value
2023-02-07T00:01:35.430Z,4.60
2023-02-07T00:04:02.689Z,4.60
2023-02-07T00:06:33.035Z,4.60
2023-02-07T00:09:08.556Z,4.60
2023-02-07T00:11:37.364Z,4.60
2023-02-07T00:14:06.174Z,4.60
2023-02-07T00:16:33.463Z,4.60
2023-02-07T00:19:06.336Z,4.50
2023-02-07T00:21:33.812Z,4.50
2023-02-07T00:24:01.041Z,4.50
2023-02-07T00:26:28.670Z,4.50
2023-02-07T00:28:58.028Z,4.50
2023-02-07T00:31:30.200Z,4.40
2023-02-07T00:34:00.581Z,4.40
2023-02-07T00:36:31.660Z,4.40
2023-02-07T00:39:00.619Z,4.40
2023-02-07T00:41:31.331Z,4.40
2023-02-07T00:43:58.458Z,4.40
2023-02-07T00:46:26.976Z,4.30
2023-02-07T00:48:54.710Z,4.40
2023-02-07T00:51:22.271Z,4.30
2023-02-07T00:53:58.944Z,4.20
2023-02-07T00:56:28.563Z,4.20
2023-02-07T00:58:58.393Z,4.10
2023-02-07T01:01:32.850Z,4.20
2023-02-07T01:04:03.055Z,4.00
2023-02-07T01:06:36.359Z,4.10
2023-02-07T01:09:05.960Z,4.00
2023-02-07T01:11:34.057Z,4.10
2023-02-07T01:14:02.375Z,4.10
2023-02-07T01:16:35.454Z,4.10
2023-02-07T01:19:06.409Z,4.00
2023-02-07T01:21:34.255Z,4.10
2023-02-07T01:24:01.376Z,4.10
2023-02-07T01:26:35.386Z,4.10
2023-02-07T01:29:02.571Z,4.10
2023-02-07T01:31:31.059Z,4.00
2023-02-07T01:34:00.228Z,4.00
2023-02-07T01:36:29.189Z,4.10
2023-02-07T01:38:56.418Z,4.10
2023-02-07T01:41:25.679Z,4.00
2023-02-07T01:43:57.160Z,4.10
2023-02-07T01:46:27.998Z,4.10
2023-02-07T01:48:59.126Z,4.10
2023-02-07T01:51:28.309Z,4.00
2023-02-07T01:53:59.975Z,4.00
2023-02-07T01:56:31.954Z,4.00
2023-02-07T01:59:00.566Z,4.00
2023-02-07T02:01:27.763Z,4.00
2023-02-07T02:03:57.353Z,4.00
2023-02-07T02:06:28.190Z,4.00
2023-02-07T02:09:08.627Z,3.90
2023-02-07T02:12:13.503Z,4.00
2023-02-07T02:15:17.592Z,3.90
2023-02-07T02:18:00.028Z,4.00
2023-02-07T02:21:41.107Z,4.00
2023-02-07T02:24:40.853Z,4.00
2023-02-07T02:27:17.269Z,4.00
2023-02-07T02:30:34.215Z,4.00
2023-02-07T02:33:21.655Z,4.10
2023-02-07T02:36:05.994Z,4.10
2023-02-07T02:38:36.803Z,4.10
2023-02-07T02:41:09.907Z,4.00
2023-02-07T02:43:46.286Z,4.00
2023-02-07T02:46:18.839Z,4.00
2023-02-07T02:48:48.702Z,3.90
2023-02-07T02:51:15.876Z,3.80
2023-02-07T02:53:52.889Z,3.80
2023-02-07T02:56:44.248Z,3.90
2023-02-07T02:59:54.492Z,3.80
2023-02-07T03:02:36.232Z,3.80
2023-02-07T03:05:19.243Z,3.70
2023-02-07T03:07:59.576Z,3.80
2023-02-07T03:10:35.218Z,3.70
2023-02-07T03:13:24.926Z,3.70
2023-02-07T03:16:05.200Z,3.70
2023-02-07T03:18:42.496Z,3.60
2023-02-07T03:21:18.468Z,3.70
2023-02-07T03:23:46.947Z,3.60
2023-02-07T03:26:14.937Z,3.60
2023-02-07T03:28:42.953Z,3.50
2023-02-07T03:31:15.608Z,3.50
2023-02-07T03:33:43.827Z,3.50
2023-02-07T03:36:18.427Z,3.50
2023-02-07T03:38:46.321Z,3.50
2023-02-07T03:41:29.159Z,3.50
2023-02-07T03:43:58.168Z,3.40
2023-02-07T03:46:26.516Z,3.30
2023-02-07T03:48:53.500Z,3.30
2023-02-07T03:51:29.319Z,3.30
2023-02-07T03:53:56.439Z,3.30
2023-02-07T03:56:23.513Z,3.30
2023-02-07T03:58:53.664Z,3.40
2023-02-07T04:01:21.202Z,3.30
2023-02-07T04:03:48.343Z,3.30
2023-02-07T04:06:15.562Z,3.30
2023-02-07T04:08:43.936Z,3.20
2023-02-07T04:11:11.315Z,3.20
2023-02-07T04:13:38.439Z,3.20
2023-02-07T04:16:06.872Z,3.10
2023-02-07T04:18:34.409Z,3.20
2023-02-07T04:21:07.532Z,3.20
2023-02-07T04:23:42.408Z,3.20
2023-02-07T04:26:11.015Z,3.30
2023-02-07T04:28:38.047Z,3.20
2023-02-07T04:31:05.541Z,3.20
2023-02-07T04:33:32.603Z,3.20
2023-02-07T04:36:02.716Z,3.10
2023-02-07T04:38:30.068Z,3.10
2023-02-07T04:41:03.415Z,3.00
2023-02-07T04:43:32.855Z,3.00
2023-02-07T04:46:00.664Z,3.00
2023-02-07T04:48:28.228Z,2.90
2023-02-07T04:50:55.422Z,2.80
2023-02-07T04:53:22.532Z,2.80
2023-02-07T04:55:58.611Z,2.70
2023-02-07T04:58:25.944Z,2.70
2023-02-07T05:00:54.684Z,2.70
2023-02-07T05:03:21.779Z,2.70
2023-02-07T05:05:49.221Z,2.80
2023-02-07T05:08:16.258Z,2.70
2023-02-07T05:10:43.237Z,2.60
2023-02-07T05:13:10.252Z,2.60
2023-02-07T05:15:37.497Z,2.70
2023-02-07T05:18:06.366Z,2.70
2023-02-07T05:20:33.292Z,2.70
2023-02-07T05:23:00.319Z,2.70
2023-02-07T05:25:27.778Z,2.40
2023-02-07T05:27:54.811Z,2.20
2023-02-07T05:30:22.929Z,2.20
2023-02-07T05:33:05.968Z,2.10
2023-02-07T05:35:40.426Z,2.20
2023-02-07T05:38:11.133Z,2.10
2023-02-07T05:40:40.836Z,2.00
2023-02-07T05:43:10.837Z,2.00
2023-02-07T05:45:39.593Z,2.00
2023-02-07T05:48:10.578Z,1.90
2023-02-07T05:50:39.860Z,1.90
2023-02-07T05:53:08.873Z,1.80
2023-02-07T05:55:37.539Z,1.80
2023-02-07T05:58:05.359Z,1.80
2023-02-07T06:00:32.399Z,1.80
2023-02-07T06:02:59.530Z,1.70
2023-02-07T06:05:31.507Z,1.90
2023-02-07T06:08:00.222Z,2.10
2023-02-07T06:10:27.261Z,2.10
2023-02-07T06:12:54.378Z,2.20
2023-02-07T06:15:21.523Z,2.20
2023-02-07T06:17:48.595Z,2.10
2023-02-07T06:20:18.907Z,2.10
2023-02-07T06:22:45.960Z,2.10
2023-02-07T06:25:14.477Z,2.10
2023-02-07T06:27:42.266Z,2.20
2023-02-07T06:30:11.961Z,2.10
2023-02-07T06:32:42.023Z,2.00
2023-02-07T06:35:09.479Z,2.00
2023-02-07T06:37:36.446Z,1.70
2023-02-07T06:40:04.516Z,1.60
2023-02-07T06:42:33.022Z,1.60
2023-02-07T06:45:00.092Z,1.40
2023-02-07T06:47:27.284Z,1.40
2023-02-07T06:49:54.212Z,1.30
2023-02-07T06:52:21.512Z,1.40
2023-02-07T06:54:48.461Z,1.60
2023-02-07T06:57:15.602Z,1.80
2023-02-07T06:59:43.990Z,1.90
2023-02-07T07:02:12.410Z,1.70
2023-02-07T07:04:39.517Z,1.70
2023-02-07T07:07:06.702Z,1.80
2023-02-07T07:09:33.966Z,1.80
2023-02-07T07:12:01.037Z,1.90
2023-02-07T07:14:28.113Z,1.90
2023-02-07T07:16:56.975Z,1.90
2023-02-07T07:19:24.090Z,2.00
2023-02-07T07:21:55.414Z,1.90
2023-02-07T07:24:22.548Z,2.00
2023-02-07T07:26:50.258Z,2.10
2023-02-07T07:29:20.689Z,2.20
2023-02-07T07:31:53.515Z,2.20
2023-02-07T07:34:25.031Z,2.20
2023-02-07T07:36:53.766Z,2.20
2023-02-07T07:39:21.733Z,2.10
2023-02-07T07:41:48.686Z,2.10
2023-02-07T07:44:16.087Z,2.10
2023-02-07T07:46:46.018Z,2.10
2023-02-07T07:49:16.328Z,2.10
2023-02-07T07:51:44.730Z,2.10
2023-02-07T07:54:11.735Z,2.10
2023-02-07T07:56:38.720Z,2.10
2023-02-07T07:59:05.919Z,2.10
2023-02-07T08:01:35.750Z,2.10
2023-02-07T08:04:05.817Z,2.10
2023-02-07T08:06:33.028Z,2.00
2023-02-07T08:09:01.474Z,2.10
2023-02-07T08:11:28.612Z,2.10
2023-02-07T08:13:55.679Z,2.10
2023-02-07T08:16:25.707Z,2.10
2023-02-07T08:18:58.862Z,2.10
2023-02-07T08:21:26.852Z,2.20
2023-02-07T08:23:57.048Z,2.20
2023-02-07T08:26:25.409Z,2.20
2023-02-07T08:28:52.467Z,2.20
2023-02-07T08:31:19.681Z,2.20
2023-02-07T08:33:46.874Z,2.20
2023-02-07T08:36:13.939Z,2.20
2023-02-07T08:38:40.905Z,2.20
2023-02-07T08:41:08.037Z,2.30
2023-02-07T08:43:43.912Z,2.30
2023-02-07T08:46:11.495Z,2.40
2023-02-07T08:48:38.796Z,2.40
2023-02-07T08:51:07.506Z,2.40
2023-02-07T08:53:35.094Z,2.40
2023-02-07T08:56:02.032Z,2.40
2023-02-07T08:58:29.181Z,2.30
2023-02-07T09:01:00.803Z,2.40
2023-02-07T09:03:28.238Z,2.40
2023-02-07T09:06:01.038Z,2.50
2023-02-07T09:08:28.021Z,2.50
2023-02-07T09:10:55.141Z,2.60
2023-02-07T09:13:22.114Z,2.60
2023-02-07T09:15:56.932Z,2.60
2023-02-07T09:18:27.632Z,2.70
2023-02-07T09:20:57.428Z,2.70
2023-02-07T09:23:24.520Z,2.80
2023-02-07T09:25:53.272Z,2.80
2023-02-07T09:28:24.992Z,2.80
2023-02-07T09:30:52.858Z,2.80
2023-02-07T09:33:22.998Z,2.90
2023-02-07T09:35:55.136Z,3.00
2023-02-07T09:38:25.949Z,3.00
2023-02-07T09:40:54.247Z,3.10
2023-02-07T09:43:38.498Z,3.10
2023-02-07T09:46:17.047Z,3.20
2023-02-07T09:48:48.460Z,3.30
2023-02-07T09:51:21.108Z,3.30
2023-02-07T09:53:54.424Z,3.40
2023-02-07T09:56:24.775Z,3.40
2023-02-07T09:58:58.805Z,3.50
2023-02-07T10:01:30.561Z,3.50
2023-02-07T10:04:15.508Z,3.60
2023-02-07T10:06:47.265Z,3.80
2023-02-07T10:09:18.763Z,3.90
2023-02-07T10:11:52.383Z,4.00
2023-02-07T10:14:37.728Z,4.10
2023-02-07T10:17:32.097Z,4.10
2023-02-07T10:20:24.950Z,4.00
2023-02-07T10:23:08.794Z,4.10
2023-02-07T10:25:48.761Z,4.00
2023-02-07T10:29:14.350Z,4.10
2023-02-07T10:31:47.374Z,4.20
2023-02-07T10:34:18.831Z,4.30
2023-02-07T10:36:49.516Z,4.50
2023-02-07T10:39:27.491Z,4.70
2023-02-07T10:41:57.375Z,4.90
2023-02-07T10:44:29.461Z,5.10
2023-02-07T10:47:01.341Z,5.30
2023-02-07T10:49:31.449Z,5.30
2023-02-07T10:52:03.427Z,5.20
2023-02-07T10:54:51.371Z,5.10
2023-02-07T10:57:20.535Z,5.10
2023-02-07T10:59:48.955Z,5.10
2023-02-07T11:02:48.314Z,5.10
2023-02-07T11:05:54.388Z,5.10
2023-02-07T11:08:36.227Z,5.00
2023-02-07T11:11:27.375Z,4.90
2023-02-07T11:14:07.607Z,4.90
2023-02-07T11:16:44.555Z,4.90
2023-02-07T11:19:20.470Z,4.90
2023-02-07T11:21:49.628Z,5.00
2023-02-07T11:24:21.288Z,5.00
2023-02-07T11:26:57.294Z,4.90
2023-02-07T11:29:28.682Z,5.00
2023-02-07T11:32:02.534Z,5.00
2023-02-07T11:34:42.595Z,5.00
2023-02-07T11:37:22.580Z,4.90
2023-02-07T11:39:51.829Z,4.80
2023-02-07T11:42:23.366Z,4.80
2023-02-07T11:45:03.814Z,4.80
2023-02-07T11:47:32.731Z,4.80
2023-02-07T11:50:07.438Z,4.90
2023-02-07T11:52:40.618Z,5.10
2023-02-07T11:55:18.391Z,5.00
2023-02-07T11:57:50.040Z,5.10
2023-02-07T12:00:23.396Z,5.10
2023-02-07T12:03:27.812Z,5.10
2023-02-07T12:05:57.967Z,5.10
2023-02-07T12:08:30.112Z,5.10
2023-02-07T12:11:02.758Z,5.10
2023-02-07T12:13:37.465Z,5.10
2023-02-07T12:16:10.358Z,5.10
2023-02-07T12:18:43.295Z,5.10
2023-02-07T12:21:19.321Z,5.10
2023-02-07T12:23:53.758Z,5.10
2023-02-07T12:26:25.333Z,5.10
2023-02-07T12:29:25.833Z,5.10
2023-02-07T12:32:02.982Z,5.10
2023-02-07T12:34:36.327Z,5.20
2023-02-07T12:37:13.769Z,5.20
2023-02-07T12:39:49.470Z,5.00
2023-02-07T12:42:31.519Z,5.00
2023-02-07T12:45:02.495Z,5.00
2023-02-07T12:47:44.763Z,5.10
2023-02-07T12:51:00.602Z,5.10
2023-02-07T12:53:45.795Z,5.10
2023-02-07T12:56:40.091Z,5.20
2023-02-07T12:59:18.257Z,5.20
2023-02-07T13:01:50.578Z,5.20
2023-02-07T13:05:01.111Z,5.20
2023-02-07T13:07:45.893Z,5.20
2023-02-07T13:10:24.209Z,5.10
2023-02-07T13:13:02.870Z,5.20
2023-02-07T13:15:44.589Z,5.30
2023-02-07T13:18:19.192Z,5.30
2023-02-07T13:20:59.614Z,5.20
2023-02-07T13:23:31.175Z,5.30
2023-02-07T13:26:06.217Z,5.30
2023-02-07T13:28:41.762Z,5.30
2023-02-07T13:31:17.414Z,5.40
2023-02-07T13:33:51.494Z,5.40
2023-02-07T13:36:35.852Z,5.50
2023-02-07T13:39:19.605Z,5.60
2023-02-07T13:42:00.110Z,5.70
2023-02-07T13:44:36.322Z,5.60
2023-02-07T13:47:17.828Z,5.50
2023-02-07T13:49:55.685Z,5.50
2023-02-07T13:52:32.974Z,5.60
2023-02-07T13:55:15.157Z,5.60
2023-02-07T13:58:03.577Z,5.70
2023-02-07T14:00:33.457Z,5.70
2023-02-07T14:03:03.509Z,5.70
2023-02-07T14:05:34.617Z,5.80
2023-02-07T14:08:05.465Z,5.70
2023-02-07T14:10:45.910Z,5.70
2023-02-07T14:13:32.271Z,5.70
2023-02-07T14:16:07.026Z,5.80
2023-02-07T14:18:48.010Z,5.80
2023-02-07T14:21:32.881Z,5.90
2023-02-07T14:24:20.888Z,5.80
2023-02-07T14:27:09.014Z,5.90
2023-02-07T14:30:21.557Z,5.80
2023-02-07T14:33:14.691Z,5.80
2023-02-07T14:36:07.068Z,5.80
2023-02-07T14:38:39.199Z,5.80
2023-02-07T14:41:11.691Z,5.80
2023-02-07T14:43:59.791Z,5.80
2023-02-07T14:46:38.268Z,5.80
2023-02-07T14:49:07.843Z,5.80
2023-02-07T14:51:43.104Z,5.70
2023-02-07T14:54:19.380Z,5.80
2023-02-07T14:56:52.673Z,5.70
2023-02-07T14:59:30.816Z,5.70
2023-02-07T15:01:57.983Z,5.80
2023-02-07T15:04:25.027Z,5.80
2023-02-07T15:06:52.103Z,5.70
2023-02-07T15:09:25.800Z,5.70
2023-02-07T15:12:15.730Z,5.80
2023-02-07T15:14:52.025Z,5.80
2023-02-07T15:17:21.396Z,5.70
2023-02-07T15:19:51.140Z,5.70
2023-02-07T15:22:26.811Z,5.60
2023-02-07T15:24:59.009Z,5.60
2023-02-07T15:27:28.511Z,5.60
2023-02-07T15:29:59.344Z,5.60
2023-02-07T15:32:30.630Z,5.50
2023-02-07T15:34:58.255Z,5.50
2023-02-07T15:37:27.793Z,5.50
2023-02-07T15:39:59.892Z,5.40
2023-02-07T15:42:30.560Z,5.40
2023-02-07T15:45:00.882Z,5.50
2023-02-07T15:47:36.396Z,5.50
2023-02-07T15:50:09.064Z,5.40
2023-02-07T15:52:41.202Z,5.50
2023-02-07T15:55:32.733Z,5.40
2023-02-07T15:58:03.527Z,5.40
2023-02-07T16:00:38.550Z,5.40
2023-02-07T16:03:19.220Z,5.30
2023-02-07T16:06:03.325Z,5.30
2023-02-07T16:08:33.580Z,5.30
2023-02-07T16:11:36.078Z,5.20
2023-02-07T16:14:14.641Z,5.20
2023-02-07T16:16:49.939Z,5.20
2023-02-07T16:19:19.692Z,5.20
2023-02-07T16:21:52.150Z,5.20
2023-02-07T16:24:22.321Z,5.20
2023-02-07T16:26:51.510Z,5.20
2023-02-07T16:29:21.674Z,5.20
2023-02-07T16:31:49.384Z,5.20
2023-02-07T16:34:18.765Z,5.20
2023-02-07T16:36:49.962Z,5.30
2023-02-07T16:39:17.053Z,5.20
2023-02-07T16:41:47.555Z,5.10
2023-02-07T16:44:21.885Z,5.10
2023-02-07T16:46:48.979Z,5.10
2023-02-07T16:49:17.699Z,5.10
2023-02-07T16:51:45.392Z,5.00
2023-02-07T16:54:13.495Z,5.00
2023-02-07T16:56:41.497Z,5.00
2023-02-07T16:59:13.177Z,5.00
2023-02-07T17:01:41.646Z,5.00
2023-02-07T17:04:11.562Z,4.90
2023-02-07T17:06:39.637Z,4.80
2023-02-07T17:09:14.711Z,5.00
2023-02-07T17:11:42.014Z,4.90
2023-02-07T17:14:09.195Z,4.70
2023-02-07T17:16:38.499Z,4.60
2023-02-07T17:19:13.607Z,4.50
2023-02-07T17:21:41.878Z,4.30
2023-02-07T17:24:10.970Z,4.30
2023-02-07T17:26:40.199Z,4.10
2023-02-07T17:29:07.336Z,4.00
2023-02-07T17:31:34.323Z,3.90
2023-02-07T17:34:01.590Z,3.90
2023-02-07T17:36:30.299Z,4.10
2023-02-07T17:38:58.909Z,4.10
2023-02-07T17:41:26.288Z,4.00
2023-02-07T17:43:53.739Z,4.00
2023-02-07T17:46:23.250Z,4.00
2023-02-07T17:48:52.100Z,3.90
2023-02-07T17:51:21.536Z,4.00
2023-02-07T17:53:51.025Z,4.00
2023-02-07T17:56:22.355Z,4.00
2023-02-07T17:58:50.109Z,4.00
2023-02-07T18:01:19.309Z,3.80
2023-02-07T18:03:48.096Z,3.80
2023-02-07T18:06:16.087Z,3.60
2023-02-07T18:08:49.444Z,3.20
2023-02-07T18:11:19.025Z,3.10
2023-02-07T18:13:47.794Z,3.10
2023-02-07T18:16:17.884Z,3.30
2023-02-07T18:18:45.209Z,3.30
2023-02-07T18:21:13.664Z,3.30
2023-02-07T18:23:42.974Z,3.20
2023-02-07T18:26:11.618Z,3.20
2023-02-07T18:28:39.963Z,3.20
2023-02-07T18:31:13.377Z,3.30
2023-02-07T18:33:40.428Z,3.20
2023-02-07T18:36:09.069Z,3.00
2023-02-07T18:38:36.706Z,2.90
2023-02-07T18:41:10.663Z,2.90
2023-02-07T18:43:40.410Z,2.90
2023-02-07T18:46:08.842Z,2.90
2023-02-07T18:48:36.056Z,2.70
2023-02-07T18:51:07.241Z,2.70
2023-02-07T18:53:35.000Z,2.70
2023-02-07T18:56:06.747Z,2.70
2023-02-07T18:58:34.650Z,2.60
2023-02-07T19:01:05.040Z,2.50
2023-02-07T19:03:32.974Z,2.60
2023-02-07T19:06:00.874Z,2.60
2023-02-07T19:08:28.388Z,2.60
2023-02-07T19:10:57.363Z,2.60
2023-02-07T19:13:25.243Z,2.70
2023-02-07T19:15:52.304Z,2.60
2023-02-07T19:18:20.773Z,2.50
2023-02-07T19:20:48.004Z,2.50
2023-02-07T19:23:15.136Z,2.60
2023-02-07T19:25:47.143Z,2.50
2023-02-07T19:28:14.362Z,2.50
2023-02-07T19:30:43.940Z,2.30
2023-02-07T19:33:11.484Z,2.30
2023-02-07T19:35:39.862Z,2.30
2023-02-07T19:38:06.876Z,2.40
2023-02-07T19:40:34.142Z,2.40
2023-02-07T19:43:01.399Z,2.40
2023-02-07T19:45:29.132Z,2.30
2023-02-07T19:47:56.321Z,2.20
2023-02-07T19:50:23.456Z,2.10
2023-02-07T19:52:51.869Z,2.10
2023-02-07T19:55:21.246Z,2.20
2023-02-07T19:57:48.632Z,2.10
2023-02-07T20:00:16.360Z,2.00
2023-02-07T20:02:43.320Z,1.90
2023-02-07T20:05:10.507Z,1.80
2023-02-07T20:07:38.029Z,1.90
2023-02-07T20:10:10.327Z,1.80
2023-02-07T20:12:37.301Z,2.00
2023-02-07T20:15:05.278Z,1.90
2023-02-07T20:17:32.574Z,1.90
2023-02-07T20:20:01.345Z,2.00
2023-02-07T20:22:28.933Z,2.00
2023-02-07T20:24:55.896Z,2.00
2023-02-07T20:27:24.451Z,2.10
2023-02-07T20:29:52.423Z,2.00
2023-02-07T20:32:20.132Z,2.00
2023-02-07T20:34:47.302Z,2.00
2023-02-07T20:37:14.342Z,2.00
2023-02-07T20:39:41.421Z,2.00
2023-02-07T20:42:08.578Z,2.00
2023-02-07T20:44:36.926Z,2.00
2023-02-07T20:47:05.124Z,1.90
2023-02-07T20:49:33.757Z,1.90
2023-02-07T20:52:00.783Z,1.70
2023-02-07T20:54:30.170Z,1.60
2023-02-07T20:56:58.032Z,1.70
2023-02-07T20:59:28.332Z,1.80
2023-02-07T21:01:57.664Z,1.70
2023-02-07T21:04:25.454Z,1.70
2023-02-07T21:06:52.946Z,1.60
2023-02-07T21:09:20.528Z,1.70
2023-02-07T21:11:49.991Z,1.50
2023-02-07T21:14:22.844Z,1.60
2023-02-07T21:16:50.070Z,1.30
2023-02-07T21:19:19.048Z,1.40
2023-02-07T21:21:46.891Z,1.30
2023-02-07T21:24:15.213Z,1.40
2023-02-07T21:26:42.985Z,1.40
2023-02-07T21:29:12.299Z,1.40
2023-02-07T21:31:39.639Z,1.50
2023-02-07T21:34:07.909Z,1.40
2023-02-07T21:36:39.841Z,1.40
2023-02-07T21:39:10.729Z,1.40
2023-02-07T21:41:41.095Z,1.50
2023-02-07T21:44:09.723Z,1.50
2023-02-07T21:46:40.077Z,1.60
2023-02-07T21:49:14.178Z,1.40
2023-02-07T21:51:44.800Z,1.40
2023-02-07T21:54:12.089Z,1.50
2023-02-07T21:56:41.994Z,1.50
2023-02-07T21:59:13.736Z,1.40
2023-02-07T22:01:41.010Z,1.40
2023-02-07T22:04:10.513Z,1.30
2023-02-07T22:06:42.168Z,1.30
2023-02-07T22:09:12.878Z,1.30
2023-02-07T22:11:40.606Z,1.10
2023-02-07T22:14:07.863Z,1.20
2023-02-07T22:16:35.278Z,1.20
2023-02-07T22:19:04.745Z,1.20
2023-02-07T22:21:34.554Z,1.30
2023-02-07T22:24:02.954Z,1.30
2023-02-07T22:26:32.672Z,1.20
2023-02-07T22:28:59.877Z,1.20
2023-02-07T22:31:29.882Z,1.20
2023-02-07T22:34:01.564Z,1.20
2023-02-07T22:36:32.030Z,1.10
2023-02-07T22:39:00.997Z,1.00
2023-02-07T22:41:29.025Z,1.00
2023-02-07T22:43:57.874Z,1.00
2023-02-07T22:46:25.479Z,1.10
2023-02-07T22:48:53.576Z,0.90
2023-02-07T22:51:23.494Z,1.10
2023-02-07T22:53:53.803Z,1.10
2023-02-07T22:56:21.457Z,1.20
2023-02-07T22:58:48.445Z,1.10
2023-02-07T23:01:23.064Z,1.00
2023-02-07T23:03:51.480Z,1.00
2023-02-07T23:06:19.231Z,0.90
2023-02-07T23:08:47.061Z,0.90
2023-02-07T23:11:16.533Z,0.90
2023-02-07T23:13:44.063Z,0.80
2023-02-07T23:16:12.961Z,1.00
2023-02-07T23:18:43.158Z,0.90
2023-02-07T23:21:12.054Z,1.00
2023-02-07T23:23:41.062Z,0.80
2023-02-07T23:26:09.097Z,0.90
2023-02-07T23:28:37.246Z,0.80
2023-02-07T23:31:05.894Z,0.90
2023-02-07T23:33:34.159Z,0.60
2023-02-07T23:36:03.615Z,0.70
2023-02-07T23:38:31.542Z,0.70
2023-02-07T23:40:58.701Z,0.60
2023-02-07T23:43:26.067Z,0.70
2023-02-07T23:45:53.327Z,0.80
2023-02-07T23:48:20.518Z,0.80
2023-02-07T23:50:51.607Z,0.70
2023-02-07T23:53:20.133Z,0.70
2023-02-07T23:55:48.585Z,0.90
2023-02-07T23:58:16.041Z,0.80
